Daichi Yamane

Jefe de ojeadores - Gamba Osaka
6 Ago 2028
Domingo
Continuar

Personalidad

Adaptabilidad (4) Ambición (8) Controversia (18) Lealtad (7) Presión (1) Profesionalismo (11) Deportividad (8) Temperamento (15)

Perfil

Estilo de dirección Democrático
Licencia Continental A
Determinación 5
Gestión de personas 9
Motivación 11
Disciplina 9
Satisfacción laboral
81%
Fatiga
0%
Cargo Jefe de ojeadores
Salario 28.6K p/s
Contrato 14.03.2029

Rendimiento

Comportamiento Bueno
Efectividad del entrenamiento
34%
Desarrollo de jugadores
50%
Prevención de lesiones
45%
Implementación táctica
50%

Eventos recientes

Evaluó a un jugador ahora
Asistió a una reunión de captación ahora
Recomendó un objetivo de fichaje ahora
Recomendó un objetivo de fichaje ahora
Recomendó un objetivo de fichaje ahora
Recomendó un objetivo de fichaje ahora
Recomendó un objetivo de fichaje ahora
Recomendó un objetivo de fichaje ahora

Actualmente siguiendo

199
Jugador Club Estado Habilidad Confianza Observado Última observación Último voto
Daniel Banjaqui Benfica Activo 124 / 139 40% 1 31.07.2028 -
Bernardo Lima Porto Activo 107 / 121 40% 1 31.07.2028 -
Gideon Manaseh Ikorodu City Activo 96 / 98 40% 2 21.07.2028 -
Jamie Wähling Hibernians Activo 92 / 96 40% 1 21.07.2028 -
Nicolò Moranduzzo Renate Activo 85 / 104 40% 1 21.07.2028 -
Dean David Yokohama F. Marinos Activo 118 / 116 69% 1 14.02.2028 Aprobar
Andrey Ivlev Nizhniy Novgorod Activo 106 / 115 40% 1 31.01.2028 -
Tyler Fletcher Rotherham United Activo 116 / 116 40% 1 31.01.2028 -
Tiago Gordillo San Miguel Activo 91 / 101 40% 1 31.01.2028 -
Jan Bürger Northampton Town Activo 117 / 124 40% 2 26.01.2028 -
Ivan Borges Defensores Activo 88 / 84 40% 1 26.01.2028 -
Jin Okumura Shonan Bellmare Activo 112 / 111 69% 1 24.01.2028 Aprobar
Azizbek To'lqinbekov Bunyodkor Activo 93 / 105 40% 2 09.01.2028 -
Francisco Machis Llaneros Activo 82 / 92 40% 1 09.01.2028 -
Ryota Izumori Sagan Tosu Activo 113 / 112 40% 2 05.01.2028 -
Mauro Silveira Junior Activo 135 / 123 40% 4 05.01.2028 -
Nahuel Galardi Maipú Activo 120 / 118 40% 2 05.01.2028 -
Mao Hosoya Santos Activo 134 / 135 67% 1 05.01.2028 Aprobar
Facundo Torres Millonarios Activo 134 / 134 67% 1 05.01.2028 Aprobar
Pontus Dahlberg Lillestrom Activo 112 / 120 40% 2 04.01.2028 -
Josh Keeley Luton Town Activo 140 / 133 40% 1 04.01.2028 -
Tomoki Hayakawa Kashima Antlers Activo 140 / 137 40% 4 03.01.2028 -
Thomas Glover Omiya Ardija Activo 113 / 113 40% 2 03.01.2028 -
Juan Moreno La Luz Activo 117 / 114 40% 3 02.01.2028 -
Esteban Glellel Quilmes Activo 117 / 120 40% 2 02.01.2028 -
Juan Pablo Cisternas Antofagasta Activo 100 / 109 40% 1 02.01.2028 -
Facundo Vila Estudiantes Activo 108 / 110 40% 2 01.01.2028 -
Emiliano González Almagro Activo 111 / 118 40% 2 01.01.2028 -
Alejandro Rodríguez Melgar Activo 122 / 122 40% 1 01.01.2028 -
Matías Arias Vélez Activo 102 / 123 40% 4 31.12.2027 -
Luciano Jachfe Nueva Chicago Activo 122 / 114 40% 2 31.12.2027 -
Bautista Carboni Defensores Unidos Activo 114 / 109 40% 2 31.12.2027 -
Ani Ozoemena Rivers United Activo 112 / 110 40% 1 31.12.2027 -
Iván Villar Granada Activo 146 / 135 40% 1 31.12.2027 -
Abdulrahman Hamisu Niger Tornadoes Activo 93 / 94 40% 1 31.12.2027 -
Rafael Moreno Atletico Venezuela Activo 110 / 113 40% 5 29.12.2027 -
Christ Wawa Gefle Activo 115 / 109 40% 3 29.12.2027 -
Ibrahim Fullah Charlton Athletic Activo 123 / 130 40% 2 29.12.2027 -
Lautaro Petruchi Gimnasia y Esgrima Activo 107 / 119 40% 1 29.12.2027 -
Nupe Godstime Bayelsa United Activo 79 / 102 40% 4 28.12.2027 -
Matias Siltanen Malmo FF Activo 125 / 125 40% 3 28.12.2027 -
Dylan Cabral Arsenal Activo 101 / 108 40% 3 26.12.2027 -
Bruno Antúnez Boston River Activo 124 / 122 40% 2 26.12.2027 -
Vincent Edafe Warri Wolves Activo 102 / 106 40% 1 26.12.2027 -
Francisco Salerno Defensores Unidos Activo 103 / 107 40% 1 26.12.2027 -
Dilan Godoy Beitar Jerusalem Activo 126 / 116 40% 1 26.12.2027 -
Jeremías Merlo Gimnasia La Plata Activo 134 / 120 40% 5 25.12.2027 -
David Eke Enyimba Activo 94 / 92 40% 4 25.12.2027 -
Lucas Arcanjo Vitória Activo 132 / 128 40% 2 23.12.2027 -
Federico Losas Chacarita Juniors Activo 109 / 112 40% 1 23.12.2027 -
Iñaki Peña Urawa Reds Activo 149 / 142 40% 2 22.12.2027 -
Nicolás Barros Schelotto Gimnasia La Plata Activo 112 / 130 40% 2 21.12.2027 -
Nahuel Pezzini Arsenal Activo 113 / 111 40% 1 21.12.2027 -
Alex Verón Vélez Activo 113 / 124 40% 5 20.12.2027 -
Josh Nichols Oldham Athletic Activo 131 / 123 40% 1 20.12.2027 -
Emmanuel Ndubueze Shooting Stars Activo 87 / 103 40% 3 18.12.2027 -
Roberto Ramírez Godoy Cruz Activo 123 / 122 40% 2 18.12.2027 -
Renzo Bacchia Racing Activo 131 / 116 40% 1 17.12.2027 -
Luka Andrade Montevideo City Torque Activo 104 / 107 40% 3 16.12.2027 -
Seb Ferdinand Rotherham United Activo 120 / 128 40% 1 14.12.2027 -
Rio Ngumoha Plymouth Argyle Activo 127 / 141 40% 1 14.12.2027 -
Kaique Kenji Fortaleza Activo 116 / 125 40% 1 14.12.2027 -
Chimobi Igwilo Rangers International Activo 87 / 102 40% 2 13.12.2027 -
Luighi Palmeiras Activo 118 / 113 40% 1 13.12.2027 -
Keisuke Osako Sanfrecce Hiroshima Activo 149 / 139 40% 1 12.12.2027 -
Mauro Casoli Talleres Activo 103 / 104 40% 1 12.12.2027 -
Mateo Peralta Danubio Activo 114 / 115 40% 3 10.12.2027 -
Kerim Alajbegović Modena Activo 136 / 130 40% 1 10.12.2027 -
Gonzalo Falcón Cienciano Activo 105 / 123 40% 1 08.12.2027 -
Cristopher Varela Deportivo La Guaira Activo 128 / 129 40% 1 08.12.2027 -
John Amah Plateau United Activo 95 / 101 40% 1 08.12.2027 -
Geovanni Banguera Deportivo Pasto Activo 112 / 123 40% 1 06.12.2027 -
Nicolás Sumavil Platense Activo 115 / 122 40% 1 06.12.2027 -
Joel Ezra Enyimba Activo 92 / 99 40% 4 30.11.2027 -
Kabiru Abdullahi Barau Activo 82 / 93 40% 3 30.11.2027 -
Valentino Acuña Newell's Old Boys Activo 105 / 118 40% 2 28.11.2027 -
Ryan McAidoo Oldham Athletic Activo 110 / 128 40% 1 28.11.2027 -
Maren Kefas Plateau United Activo 94 / 90 40% 2 26.11.2027 -
Albert Aleksanjan IFK Norrkoping Activo 91 / 108 40% 1 22.11.2027 -
Hassan Beja AFC Leopards Activo 93 / 97 40% 1 19.11.2027 -
Onyeuche Ujunwa Ikorodu City Activo 82 / 101 40% 4 17.11.2027 -
Keyano Marrah Hammarby Activo 100 / 96 40% 1 17.11.2027 -
Giovanni Baroni Talleres Activo 113 / 121 40% 2 16.11.2027 -
Adrian Skogmar Malmo FF Activo 115 / 124 40% 4 11.11.2027 -
Victor Hernandez Santa Fe Activo 128 / 126 40% 5 10.11.2027 -
Tiago Pucciarelli IF Elfsborg Activo 97 / 101 40% 1 09.11.2027 -
Tomás Aranda Boca Juniors Activo 105 / 118 40% 1 08.11.2027 -
Siyabonga Mabena Bidvest Wits Activo 112 / 120 40% 1 07.11.2027 -
Lucas Camejo River Plate Activo 89 / 91 40% 2 06.11.2027 -
Juan Rodríguez Cerro Largo Activo 89 / 104 40% 1 01.11.2027 -
Nahuel Leivas Montevideo City Torque Activo 109 / 107 40% 1 07.10.2027 -
Issa Yusuf Shooting Stars Activo 96 / 95 40% 1 07.10.2027 -
Yiandro Raap Ilves Activo 95 / 100 40% 2 20.09.2027 -
Alejandro Leiva Patronato Activo 105 / 104 40% 2 20.09.2027 -
Felipe Faúndez O'Higgins Activo 106 / 102 40% 2 18.09.2027 -
Yerry Gonzalez Universitario Popayan Activo 91 / 88 40% 1 16.09.2027 -
Nazareno Roselli Defensa y Justicia Activo 105 / 122 40% 1 16.09.2027 -
Jon Esenga IF Elfsborg Activo 97 / 102 40% 1 15.09.2027 -
José Cavadia Aguilas Doradas Activo 105 / 119 40% 1 15.09.2027 -
Yury Oyarzo Racing Activo 79 / 94 40% 1 14.09.2027 -
Hosea Michael Remo Stars Activo 77 / 92 40% 1 14.09.2027 -
Godwin Oham Warri Wolves Activo 98 / 89 40% 1 11.09.2027 -
Mohamed Moussa Koïta Mathare United Activo 89 / 107 40% 1 09.09.2027 -
Olaniyi Saheed Kwara United Activo 99 / 106 40% 1 09.09.2027 -
Ignacio Fernández Boston River Activo 90 / 100 40% 1 09.09.2027 -
Luciano Posadas Central Córdoba SdE Activo 90 / 94 40% 1 07.09.2027 -
Mpho Khethang FC Diarra Activo 84 / 89 40% 1 07.09.2027 -
Chibueze Oputa Rangers International Activo 100 / 86 40% 1 06.09.2027 -
Giovanni Leoni Lincoln City Activo 136 / 137 40% 1 06.09.2027 -
Pedro de la Vega Columbus Crew Activo 133 / 134 66% 1 22.07.2027 Aprobar
Tiago Freitas Benfica Activo 115 / 114 40% 1 08.02.2027 -
Kamaldeen Atiemo Wa All Stars Activo 108 / 100 40% 1 08.02.2027 -
Miguel Figueiredo Benfica Activo 115 / 117 40% 1 03.02.2027 -
Sampson Dweh Mallorca Activo 133 / 134 66% 1 05.01.2027 Aprobar
Samuel Edozie Southampton Activo 117 / 134 40% 1 04.01.2027 -
Richard Koné Queens Park Rangers Activo 115 / 128 40% 1 03.01.2027 -
Ivan Schranz Slavia Prague Activo 141 / 134 40% 2 01.01.2027 -
Bamba Dieng Crvena Zvezda Activo 139 / 125 40% 4 01.01.2027 -
Ilyas Ansah Hull City Activo 136 / 134 40% 4 01.01.2027 -
Peter Shalulile Mamelodi Sundowns Activo 128 / 125 40% 6 31.12.2026 Observar
Bosun Lawal Stoke City Activo 129 / 118 40% 1 31.12.2026 -
Malik Mothersille Stockport County Activo 107 / 109 40% 1 29.12.2026 -
Callum Robinson Poltava Activo 121 / 106 40% 4 28.12.2026 -
Joe Gelhardt Hull City Activo 133 / 135 40% 3 28.12.2026 -
Tyrhys Dolan Espanyol Activo 125 / 131 40% 2 28.12.2026 -
Emmanuel Boateng Hapoel Tel Aviv Activo 113 / 118 40% 1 28.12.2026 -
Welington Southampton Activo 127 / 123 40% 1 27.12.2026 -
Sam Bell Bristol City Activo 116 / 116 40% 1 25.12.2026 -
Juan Bisanz Huracán Activo 119 / 135 40% 1 24.12.2026 -
Scott Twine Bristol City Activo 110 / 122 40% 1 24.12.2026 -
Reda Khadra Qarabag Activo 139 / 139 40% 1 24.12.2026 -
Alfie Doughty Millwall Activo 116 / 124 40% 1 23.12.2026 -
Oswin Appollis Orlando Pirates Activo 123 / 116 40% 1 23.12.2026 -
Josh Windass Wrexham Activo 118 / 130 40% 1 21.12.2026 -
Matej Trusa DAC Dunajska Streda Activo 111 / 118 40% 1 19.12.2026 -
Tyreece Campbell Charlton Athletic Activo 123 / 121 40% 1 18.12.2026 -
Kyle Wootton Stockport County Activo 121 / 129 40% 1 18.12.2026 -
Cameron Archer Southampton Activo 122 / 122 40% 1 17.12.2026 -
Tariq Lamptey Queens Park Rangers Activo 140 / 140 40% 1 15.12.2026 -
Finn Azaz Southampton Activo 133 / 134 40% 1 15.12.2026 -
Bongani Khune SuperSport United Activo 134 / 129 40% 5 13.12.2026 -
Youssoufa Moukoko FC Copenhagen Activo 118 / 137 40% 1 13.12.2026 -
Marezi Portsmouth Activo 121 / 115 40% 1 12.12.2026 -
Jhon Córdoba Krasnodar Activo 152 / 142 40% 1 10.12.2026 -
Petar Stanić Ludogorets Activo 136 / 144 40% 1 09.12.2026 -
Milan van Ewijk Coventry City Activo 126 / 126 40% 1 08.12.2026 -
Patrick Agyemang Derby County Activo 120 / 113 40% 2 07.12.2026 -
Federico Martínez MFK Ruzomberok Activo 113 / 123 40% 1 02.12.2026 -
Elijah Adebayo Luton Town Activo 129 / 119 40% 1 02.12.2026 -
Ola Solbakken FC Nordsjaelland Activo 129 / 119 40% 1 29.11.2026 -
Heung-Min Son Los Angeles Football Club Activo 153 / 144 40% 5 26.11.2026 -
Dale Taylor Blackpool Activo 100 / 116 40% 1 26.11.2026 -
Zian Flemming Ipswich Town Activo 141 / 138 40% 1 23.11.2026 -
Etiosa Ighodaro Kaizer Chiefs Activo 100 / 111 40% 1 20.11.2026 -
Petter Nosa Dahl Rapid Wien Activo 115 / 127 40% 1 19.11.2026 -
Bienvenue Kanakimana Zbrojovka Brno Activo 115 / 119 40% 1 19.11.2026 -
Morgan Guilavogui Real Salt Lake Activo 135 / 133 40% 6 18.11.2026 -
Ivo Mammini Beitar Jerusalem Activo 112 / 125 40% 1 18.11.2026 -
Václav Jurečka Banik Ostrava Activo 127 / 123 40% 1 18.11.2026 -
Assad Al Hamlawi Universitatea Craiova Activo 136 / 116 40% 1 15.11.2026 -
Fiete Arp OB Activo 122 / 130 40% 1 15.11.2026 -
Takuma Asano Sanfrecce Hiroshima Activo 131 / 136 40% 3 14.11.2026 -
Wessam Abou Ali Columbus Crew Activo 121 / 134 40% 1 14.11.2026 -
Yuta Goke Vissel Kobe Activo 114 / 125 40% 3 13.11.2026 -
Luka Jović CFR Cluj Activo 147 / 132 40% 1 13.11.2026 -
Armstrong Oko-Flex Levski Activo 127 / 113 40% 1 09.11.2026 -
Haris Tabaković Red Bull Salzburg Activo 136 / 140 40% 1 08.11.2026 -
Vegard Erlien Tromso Activo 117 / 127 40% 1 06.11.2026 -
Daniel Karlsbakk Sarpsborg 08 Activo 112 / 132 40% 1 06.11.2026 -
Marko Livaja Hajduk Split Activo 125 / 123 40% 2 03.11.2026 -
Koki Ogawa Jubilo Iwata Activo 124 / 116 40% 3 27.10.2026 -
Daiya Tono Yokohama F. Marinos Activo 133 / 127 40% 1 26.10.2026 -
Myrto Uzuni Austin FC Activo 137 / 135 40% 3 25.10.2026 -
Jesus Ferreira Seattle Sounders Activo 132 / 138 40% 2 23.10.2026 -
Martín Ojeda Orlando City Activo 134 / 137 40% 4 21.10.2026 -
Petar Musa FC Dallas Activo 125 / 143 40% 2 19.10.2026 -
Teruhito Nakagawa FC Tokyo Activo 122 / 121 40% 1 19.10.2026 -
Cheikh Sabaly Vancouver Whitecaps Activo 139 / 123 40% 1 16.10.2026 -
Alexey Miranchuk Atlanta United FC Activo 141 / 151 40% 3 14.10.2026 -
Shu Morooka Avispa Fukuoka Activo 106 / 116 40% 1 13.10.2026 -
Dejan Joveljić Seattle Sounders Activo 130 / 133 40% 1 10.10.2026 -
Talles Magno New York City Activo 116 / 134 40% 2 09.10.2026 -
Shunta Araki Vegalta Sendai Activo 121 / 109 40% 1 07.10.2026 -
Daiju Sasaki Vissel Kobe Activo 121 / 124 40% 1 03.10.2026 -
Carles Gil New England Revolution Activo 146 / 145 40% 1 30.09.2026 -
Timo Werner San Jose Earthquakes Activo 117 / 118 40% 1 28.09.2026 -
Erison Kawasaki Frontale Activo 138 / 127 40% 1 27.09.2026 -
Victor Olatunji Real Salt Lake Activo 106 / 117 40% 3 26.09.2026 -
Tadeo Allende Inter Miami CF Activo 134 / 128 40% 2 23.09.2026 -
Mbekezeli Mbokazi Chicago Fire Activo 116 / 123 40% 1 19.09.2026 -
Yoshinori Muto Vissel Kobe Activo 131 / 127 40% 1 19.09.2026 -
Alexander Aravena Portland Timbers Activo 125 / 125 40% 1 18.09.2026 -
João Klauss LA Galaxy Activo 114 / 119 40% 1 16.09.2026 -
Bénie Traoré New York City Activo 129 / 126 40% 1 12.09.2026 -
Kelvin Yeboah Minnesota United FC Activo 114 / 117 40% 1 10.09.2026 -
Marcos Junior Sanfrecce Hiroshima Activo 119 / 127 40% 1 09.09.2026 -
Lewis Morgan Toronto FC Activo 136 / 133 40% 1 07.09.2026 -
Alonso Martínez New York City Activo 109 / 118 40% 1 03.08.2026 -
Yuki Kakita Kashima Antlers Activo 128 / 135 40% 1 03.08.2026 -